CheckWX is a tool to help pilots better visualize weather data.  It is not intended as a substitute for an official pre-flight weather briefing.

02:48:32 UTC

CYHZ TAF
Halifax / Stanfield International Airport
Halifax, Canada
TAF CYHZ 222338Z 2300/2324 21010G20KT P6SM FEW040 SCT240 FM230500 22010KT P6SM FEW120 FM231500 23010G20KT P6SM BKN240 FM232000 23010G20KT P6SM SCT050 BKN150 BECMG 2321/2323 27007KT RMK NXT FCST BY 230300Z

Sep-23@
00:00 UTC

Sep-23 @ 00:00 UTC

Sep-23@
05:00 UTC

Sep-23 @ 05:00 UTC

TAF CYHZ 222338Z 2300/2324 21010G20KT P6SM FEW040 SCT240
Wind
  • 210° at 10 KTS
  • {Gusting to 20 KTS
Cloud Levels
  • Few at 4,000' AGL
  • Scattered at 24,000' AGL

Sep-23@
05:00 UTC

Sep-23 @ 05:00 UTC

Sep-23@
15:00 UTC

Sep-23 @ 15:00 UTC

FM230500 22010KT P6SM FEW120

From

From Standard forecast or significant change

Wind
  • 220° at 10 KTS
Cloud Levels
  • Few at 12,000' AGL

Sep-23@
15:00 UTC

Sep-23 @ 15:00 UTC

Sep-23@
20:00 UTC

Sep-23 @ 20:00 UTC

FM231500 23010G20KT P6SM BKN240

From

From Standard forecast or significant change

Wind
  • 230° at 10 KTS
  • {Gusting to 20 KTS
Cloud Levels
  • Broken at 24,000' AGL

Sep-23@
20:00 UTC

Sep-23 @ 20:00 UTC

Sep-23@
21:00 UTC

Sep-23 @ 21:00 UTC

FM232000 23010G20KT P6SM SCT050 BKN150

From

From Standard forecast or significant change

Wind
  • 230° at 10 KTS
  • {Gusting to 20 KTS
Cloud Levels
  • Scattered at 5,000' AGL
  • Broken at 15,000' AGL

Sep-23@
21:00 UTC

Sep-23 @ 21:00 UTC

Sep-24@
00:00 UTC

Sep-24 @ 00:00 UTC

BECMG 2321/2323 27007KT RMK NXT FCST BY 230300Z

Becoming

Becoming Conditions expected by Mon, Sep 23, 2019 @ 23:00 UTC

Wind
  • 270° at 7 KTS
Cloud Levels
  • Scattered at 5,000' AGL
  • Broken at 15,000' AGL